This is the latest recevied weather packets stored in our database for station/object IZ6EGX-13. If no packets are shown the sender has not sent any weather packets the latest 10 day(s).
| Time | Temp. | Humidity | Pressure | Rain* | Wind** | Luminosity | Snow |
|---|---|---|---|---|---|---|---|
| 1777567583 | 13.33° C | 65% | 1022.8 hPa | 0 mm | - | - | - |
| 1777566983 | 13.33° C | 67% | 1022.8 hPa | 0 mm | - | - | - |
| 1777566383 | 13.33° C | 68% | 1022.8 hPa | 0 mm | - | - | - |
| 1777565783 | 13.33° C | 67% | 1022.7 hPa | 0 mm | - | - | - |
| 1777565183 | 13.89° C | 66% | 1022.6 hPa | 0 mm | - | - | - |
| 1777564583 | 13.89° C | 66% | 1022.5 hPa | 0 mm | - | - | - |
| 1777563983 | 13.89° C | 65% | 1022.4 hPa | 0 mm | - | - | - |
| 1777563383 | 14.44° C | 65% | 1022.4 hPa | 0 mm | - | - | - |
| 1777562782 | 14.44° C | 66% | 1022.3 hPa | 0 mm | - | - | - |
| 1777562183 | 14.44° C | 67% | 1022.3 hPa | 0 mm | - | - | - |
| 1777561583 | 14.44° C | 67% | 1022.3 hPa | 0 mm | - | - | - |
| 1777560983 | 14.44° C | 67% | 1022.3 hPa | 0 mm | - | - | - |
| 1777560383 | 15.56° C | 65% | 1022.2 hPa | 0 mm | - | - | - |
| 1777559783 | 15.56° C | 65% | 1022.2 hPa | 0 mm | - | - | - |
| 1777559183 | 15° C | 66% | 1022.3 hPa | 0 mm | - | - | - |
| 1777558583 | 14.44° C | 69% | 1022.5 hPa | 0 mm | - | - | - |
| 1777557983 | 13.33° C | 70% | 1022.6 hPa | 0 mm | - | - | - |
| 1777557383 | 13.33° C | 70% | 1022.7 hPa | 0 mm | - | - | - |
| 1777556783 | 13.33° C | 69% | 1022.8 hPa | 0 mm | - | - | - |
| 1777556183 | 13.89° C | 68% | 1022.8 hPa | 0 mm | - | - | - |
| 1777555583 | 13.89° C | 67% | 1022.8 hPa | 0 mm | - | - | - |
| 1777554983 | 13.89° C | 67% | 1022.8 hPa | 0 mm | - | - | - |
| 1777554382 | 13.33° C | 68% | 1022.9 hPa | 0 mm | - | - | - |
| 1777553782 | 13.89° C | 66% | 1022.9 hPa | 0 mm | - | - | - |
| 1777553182 | 13.89° C | 65% | 1022.8 hPa | 0 mm | - | - | - |
* Rain latest hour (hover to see other rain measurements)
** Current wind speed in m/s (hover to see current wind gust speed)